createdAt,value
2022-09-29T00:01:07.596Z,99967.59
2022-09-29T00:03:34.455Z,99960.63
2022-09-29T00:06:00.955Z,99960.59
2022-09-29T00:08:32.570Z,99954.50
2022-09-29T00:10:59.244Z,99950.13
2022-09-29T00:13:26.004Z,99956.25
2022-09-29T00:15:57.584Z,99948.41
2022-09-29T00:18:24.067Z,99956.28
2022-09-29T00:21:02.508Z,99958.00
2022-09-29T00:23:30.058Z,99952.75
2022-09-29T00:26:17.541Z,99952.75
2022-09-29T00:28:52.559Z,99949.28
2022-09-29T00:31:20.221Z,99947.53
2022-09-29T00:33:47.202Z,99947.53
2022-09-29T00:36:16.946Z,99939.66
2022-09-29T00:38:45.107Z,99945.78
2022-09-29T00:41:18.014Z,99950.16
2022-09-29T00:43:50.977Z,99955.41
2022-09-29T00:46:51.377Z,99954.53
2022-09-29T00:49:25.417Z,99948.41
2022-09-29T00:51:58.015Z,99954.50
2022-09-29T00:54:39.898Z,99956.28
2022-09-29T00:57:09.835Z,99950.16
2022-09-29T00:59:58.723Z,99961.53
2022-09-29T01:02:26.637Z,99957.16
2022-09-29T01:04:55.058Z,99949.28
2022-09-29T01:07:23.593Z,99945.78
2022-09-29T01:09:53.855Z,99941.44
2022-09-29T01:12:20.975Z,99944.91
2022-09-29T01:14:48.370Z,99950.13
2022-09-29T01:17:15.570Z,99943.16
2022-09-29T01:20:05.981Z,99949.28
2022-09-29T01:22:42.586Z,99951.88
2022-09-29T01:25:35.082Z,99949.25
2022-09-29T01:28:13.462Z,99954.50
2022-09-29T01:31:05.764Z,99952.75
2022-09-29T01:34:09.360Z,99954.50
2022-09-29T01:36:59.813Z,99955.38
2022-09-29T01:39:51.586Z,99951.91
2022-09-29T01:42:22.916Z,99959.75
2022-09-29T01:45:02.691Z,99960.59
2022-09-29T01:47:35.303Z,99961.47
2022-09-29T01:50:13.754Z,99961.47
2022-09-29T01:52:51.353Z,99961.47
2022-09-29T01:55:20.893Z,99972.78
2022-09-29T01:57:55.868Z,99971.06
2022-09-29T02:00:24.057Z,99967.53
2022-09-29T02:03:35.313Z,99967.53
2022-09-29T02:06:06.716Z,99963.16
2022-09-29T02:08:55.488Z,99964.06
2022-09-29T02:11:21.896Z,99967.50
2022-09-29T02:14:03.881Z,99965.81
2022-09-29T02:16:32.380Z,99961.41
2022-09-29T02:19:04.188Z,99977.13
2022-09-29T02:21:30.546Z,99971.00
2022-09-29T02:23:57.399Z,99970.16
2022-09-29T02:26:28.581Z,99977.13
2022-09-29T02:28:55.724Z,99969.25
2022-09-29T02:31:23.155Z,99969.28
2022-09-29T02:33:49.610Z,99968.41
2022-09-29T02:36:33.805Z,99963.16
2022-09-29T02:39:13.163Z,99961.44
2022-09-29T02:41:45.556Z,99966.66
2022-09-29T02:44:41.341Z,99972.72
2022-09-29T02:47:17.912Z,99973.59
2022-09-29T02:50:22.090Z,99968.34
2022-09-29T02:53:18.904Z,99963.09
2022-09-29T02:56:23.014Z,99965.66
2022-09-29T02:59:09.939Z,99969.16
2022-09-29T03:01:47.550Z,99956.03
2022-09-29T03:04:14.429Z,99964.69
2022-09-29T03:06:40.776Z,99965.56
2022-09-29T03:09:07.099Z,99968.16
2022-09-29T03:11:33.484Z,99969.91
2022-09-29T03:14:03.334Z,99971.66
2022-09-29T03:16:29.999Z,99972.47
2022-09-29T03:18:57.374Z,99970.72
2022-09-29T03:21:24.091Z,99971.59
2022-09-29T03:23:53.156Z,99975.94
2022-09-29T03:26:26.549Z,99977.69
2022-09-29T03:28:53.158Z,99977.66
2022-09-29T03:31:22.580Z,99975.00
2022-09-29T03:33:49.739Z,99975.00
2022-09-29T03:36:16.166Z,99973.25
2022-09-29T03:38:44.744Z,99971.47
2022-09-29T03:41:11.094Z,99977.56
2022-09-29T03:43:37.437Z,99979.31
2022-09-29T03:46:03.806Z,99977.56
2022-09-29T03:48:35.765Z,99983.69
2022-09-29T03:51:02.628Z,99981.91
2022-09-29T03:53:31.841Z,99988.00
2022-09-29T03:55:58.397Z,99986.25
2022-09-29T03:58:25.115Z,99983.59
2022-09-29T04:00:51.565Z,99987.06
2022-09-29T04:03:18.012Z,99989.69
2022-09-29T04:05:50.651Z,99985.31
2022-09-29T04:08:17.264Z,99989.63
2022-09-29T04:10:46.642Z,99989.59
2022-09-29T04:13:17.706Z,99993.91
2022-09-29T04:15:46.073Z,99987.81
2022-09-29T04:18:18.613Z,100000.00
2022-09-29T04:20:47.616Z,100006.06
2022-09-29T04:23:14.022Z,100007.78
2022-09-29T04:25:40.688Z,100006.00
2022-09-29T04:28:07.475Z,100010.34
2022-09-29T04:30:33.839Z,100009.44
2022-09-29T04:33:00.200Z,100014.66
2022-09-29T04:35:26.531Z,100008.56
2022-09-29T04:37:57.446Z,100019.00
2022-09-29T04:40:26.803Z,100013.75
2022-09-29T04:42:53.269Z,100013.81
2022-09-29T04:45:22.483Z,100015.53
2022-09-29T04:47:48.795Z,100022.44
2022-09-29T04:50:15.250Z,100023.28
2022-09-29T04:52:43.401Z,100023.25
2022-09-29T04:55:22.953Z,100024.97
2022-09-29T04:57:55.794Z,100023.16
2022-09-29T05:00:22.154Z,100033.56
2022-09-29T05:02:50.011Z,100031.81
2022-09-29T05:05:16.751Z,100026.59
2022-09-29T05:07:45.913Z,100036.19
2022-09-29T05:10:12.306Z,100032.69
2022-09-29T05:12:38.618Z,100034.44
2022-09-29T05:15:06.217Z,100037.88
2022-09-29T05:17:33.270Z,100039.59
2022-09-29T05:19:59.631Z,100043.13
2022-09-29T05:22:26.063Z,100033.50
2022-09-29T05:24:52.602Z,100040.50
2022-09-29T05:27:19.079Z,100047.44
2022-09-29T05:29:45.600Z,100051.81
2022-09-29T05:32:12.499Z,100057.03
2022-09-29T05:34:39.775Z,100055.22
2022-09-29T05:37:06.276Z,100056.06
2022-09-29T05:39:34.501Z,100061.28
2022-09-29T05:42:06.351Z,100066.53
2022-09-29T05:44:36.390Z,100055.22
2022-09-29T05:47:02.943Z,100063.94
2022-09-29T05:49:31.803Z,100058.72
2022-09-29T05:51:58.540Z,100067.44
2022-09-29T05:54:25.104Z,100071.81
2022-09-29T05:56:51.474Z,100069.22
2022-09-29T05:59:17.894Z,100070.06
2022-09-29T06:01:44.305Z,100076.16
2022-09-29T06:04:10.938Z,100067.44
2022-09-29T06:06:40.062Z,100075.28
2022-09-29T06:09:07.307Z,100069.19
2022-09-29T06:11:33.935Z,100082.28
2022-09-29T06:14:02.346Z,100079.66
2022-09-29T06:16:30.468Z,100079.66
2022-09-29T06:18:59.533Z,100083.13
2022-09-29T06:21:30.673Z,100079.66
2022-09-29T06:23:58.410Z,100083.19
2022-09-29T06:26:27.053Z,100075.38
2022-09-29T06:28:54.834Z,100083.25
2022-09-29T06:31:24.629Z,100085.97
2022-09-29T06:33:51.500Z,100091.63
2022-09-29T06:36:40.012Z,100091.94
2022-09-29T06:39:10.309Z,100092.09
2022-09-29T06:41:36.661Z,100095.72
2022-09-29T06:44:03.459Z,100100.13
2022-09-29T06:46:30.443Z,100097.56
2022-09-29T06:48:58.573Z,100108.09
2022-09-29T06:51:37.756Z,100108.97
2022-09-29T06:54:12.412Z,100109.91
2022-09-29T06:56:39.817Z,100105.53
2022-09-29T06:59:06.578Z,100106.44
2022-09-29T07:01:33.013Z,100115.16
2022-09-29T07:04:02.845Z,100125.66
2022-09-29T07:06:29.854Z,100121.28
2022-09-29T07:08:58.277Z,100121.34
2022-09-29T07:11:26.200Z,100123.13
2022-09-29T07:13:54.713Z,100107.38
2022-09-29T07:16:25.321Z,100117.91
2022-09-29T07:18:52.883Z,100124.00
2022-09-29T07:21:21.990Z,100129.25
2022-09-29T07:23:48.838Z,100126.63
2022-09-29T07:26:19.242Z,100133.63
2022-09-29T07:28:46.859Z,100132.72
2022-09-29T07:31:16.425Z,100133.59
2022-09-29T07:33:44.282Z,100132.72
2022-09-29T07:36:10.999Z,100141.44
2022-09-29T07:38:37.402Z,100136.22
2022-09-29T07:41:05.965Z,100142.31
2022-09-29T07:43:33.037Z,100141.50
2022-09-29T07:46:02.873Z,100147.56
2022-09-29T07:48:32.214Z,100148.47
2022-09-29T07:51:12.765Z,100156.34
2022-09-29T07:53:40.244Z,100155.50
2022-09-29T07:56:12.070Z,100159.88
2022-09-29T07:58:39.552Z,100158.72
2022-09-29T08:01:10.474Z,100163.41
2022-09-29T08:03:38.861Z,100168.63
2022-09-29T08:06:07.282Z,100164.00
2022-09-29T08:08:38.079Z,100162.56
2022-09-29T08:11:12.619Z,100167.13
2022-09-29T08:13:40.577Z,100167.28
2022-09-29T08:16:11.026Z,100172.38
2022-09-29T08:18:37.963Z,100170.59
2022-09-29T08:21:08.018Z,100168.00
2022-09-29T08:23:43.622Z,100179.56
2022-09-29T08:26:19.239Z,100176.56
2022-09-29T08:28:52.214Z,100185.38
2022-09-29T08:31:25.563Z,100184.50
2022-09-29T08:33:52.335Z,100184.75
2022-09-29T08:36:20.547Z,100189.78
2022-09-29T08:38:49.108Z,100200.53
2022-09-29T08:41:56.227Z,100198.63
2022-09-29T08:44:45.397Z,100204.69
2022-09-29T08:47:26.686Z,100216.78
2022-09-29T08:49:59.210Z,100221.75
2022-09-29T08:52:42.056Z,100219.00
2022-09-29T08:55:23.932Z,100219.63
2022-09-29T08:57:58.324Z,100224.00
2022-09-29T09:00:38.779Z,100227.66
2022-09-29T09:03:24.770Z,100222.03
2022-09-29T09:06:12.216Z,100216.13
2022-09-29T09:09:09.994Z,100224.78
2022-09-29T09:11:52.595Z,100231.56
2022-09-29T09:14:18.909Z,100228.25
2022-09-29T09:16:58.211Z,100229.25
2022-09-29T09:19:47.147Z,100223.81
2022-09-29T09:22:22.664Z,100231.09
2022-09-29T09:25:01.488Z,100226.78
2022-09-29T09:27:34.571Z,100232.03
2022-09-29T09:30:13.661Z,100233.66
2022-09-29T09:32:49.814Z,100226.28
2022-09-29T09:35:28.258Z,100237.00
2022-09-29T09:38:00.453Z,100230.94
2022-09-29T09:40:31.998Z,100224.19
2022-09-29T09:43:14.442Z,100230.56
2022-09-29T09:46:23.768Z,100233.78
2022-09-29T09:48:58.645Z,100241.91
2022-09-29T09:51:24.969Z,100233.59
2022-09-29T09:53:54.852Z,100240.09
2022-09-29T09:56:36.318Z,100239.16
2022-09-29T09:59:23.949Z,100241.13
2022-09-29T10:01:50.329Z,100234.94
2022-09-29T10:04:16.925Z,100241.97
2022-09-29T10:06:43.586Z,100236.44
2022-09-29T10:09:14.813Z,100238.94
2022-09-29T10:11:41.985Z,100246.78
2022-09-29T10:14:15.614Z,100239.13
2022-09-29T10:16:54.892Z,100244.38
2022-09-29T10:19:45.120Z,100243.91
2022-09-29T10:22:15.240Z,100242.47
2022-09-29T10:24:41.744Z,100240.38
2022-09-29T10:27:08.286Z,100241.69
2022-09-29T10:29:42.375Z,100239.19
2022-09-29T10:32:10.121Z,100242.94
2022-09-29T10:34:40.367Z,100241.22
2022-09-29T10:37:35.895Z,100241.63
2022-09-29T10:40:14.766Z,100246.88
2022-09-29T10:42:43.547Z,100244.69
2022-09-29T10:45:14.883Z,100237.69
2022-09-29T10:48:06.473Z,100246.91
2022-09-29T10:53:34.878Z,100248.34
2022-09-29T10:56:19.484Z,100249.38
2022-09-29T10:59:00.238Z,100252.91
2022-09-29T11:01:32.776Z,100249.19
2022-09-29T11:04:03.990Z,100247.66
2022-09-29T11:06:38.391Z,100255.03
2022-09-29T11:09:27.050Z,100259.78
2022-09-29T11:12:00.389Z,100259.78
2022-09-29T11:14:37.506Z,100261.22
2022-09-29T11:17:24.075Z,100263.47
2022-09-29T11:19:52.609Z,100255.16
2022-09-29T11:22:21.938Z,100267.94
2022-09-29T11:25:09.408Z,100266.84
2022-09-29T11:28:13.304Z,100260.47
2022-09-29T11:31:00.787Z,100256.56
2022-09-29T11:33:48.590Z,100259.84
2022-09-29T11:36:36.073Z,100256.25
2022-09-29T11:39:21.324Z,100266.25
2022-09-29T11:42:12.457Z,100277.75
2022-09-29T11:44:58.189Z,100268.94
2022-09-29T11:47:47.775Z,100266.25
2022-09-29T11:50:38.497Z,100274.38
2022-09-29T11:53:26.405Z,100280.69
2022-09-29T11:56:12.536Z,100272.59
2022-09-29T11:58:54.117Z,100277.91
2022-09-29T12:01:42.794Z,100280.53
2022-09-29T12:04:12.119Z,100281.88
2022-09-29T12:06:54.862Z,100286.00
2022-09-29T12:09:33.986Z,100295.28
2022-09-29T12:12:24.926Z,100295.63
2022-09-29T12:15:45.509Z,100281.78
2022-09-29T12:18:18.656Z,100294.31
2022-09-29T12:20:48.985Z,100291.56
2022-09-29T12:23:19.756Z,100295.44
2022-09-29T12:26:11.072Z,100291.69
2022-09-29T12:28:45.750Z,100294.00
2022-09-29T12:31:27.874Z,100296.28
2022-09-29T12:34:11.129Z,100295.41
2022-09-29T12:36:50.150Z,100293.53
2022-09-29T12:39:27.255Z,100303.72
2022-09-29T12:42:13.627Z,100301.59
2022-09-29T12:44:48.023Z,100299.66
2022-09-29T12:47:38.218Z,100303.72
2022-09-29T12:50:29.027Z,100310.81
2022-09-29T12:53:15.967Z,100303.25
2022-09-29T12:56:16.307Z,100300.38
2022-09-29T12:58:48.344Z,100299.34
2022-09-29T13:01:31.861Z,100304.13
2022-09-29T13:04:26.312Z,100305.47
2022-09-29T13:07:17.123Z,100309.53
2022-09-29T13:10:11.354Z,100309.28
2022-09-29T13:13:15.368Z,100309.31
2022-09-29T13:16:12.478Z,100311.66
2022-09-29T13:19:26.069Z,100314.34
2022-09-29T13:22:27.201Z,100314.91
2022-09-29T13:25:07.876Z,100308.00
2022-09-29T13:27:42.348Z,100312.53
2022-09-29T13:30:14.866Z,100322.88
2022-09-29T13:32:51.162Z,100320.00
2022-09-29T13:35:24.556Z,100331.09
2022-09-29T13:37:56.910Z,100330.16
2022-09-29T13:40:27.367Z,100321.13
2022-09-29T13:42:59.923Z,100327.16
2022-09-29T13:45:34.268Z,100336.53
2022-09-29T13:48:03.511Z,100329.75
2022-09-29T13:50:49.518Z,100328.16
2022-09-29T13:53:19.055Z,100330.19
2022-09-29T13:56:04.886Z,100330.72
2022-09-29T13:58:32.394Z,100334.59
2022-09-29T14:01:01.829Z,100330.09
2022-09-29T14:03:37.154Z,100339.84
2022-09-29T14:06:17.108Z,100344.41
2022-09-29T14:09:16.298Z,100345.38
2022-09-29T14:11:56.136Z,100340.19
2022-09-29T14:14:44.687Z,100345.63
2022-09-29T14:17:44.299Z,100343.81
2022-09-29T14:20:22.116Z,100345.88
2022-09-29T14:22:55.293Z,100345.22
2022-09-29T14:25:29.540Z,100344.31
2022-09-29T14:27:57.822Z,100347.00
2022-09-29T14:30:35.043Z,100345.09
2022-09-29T14:33:16.798Z,100347.69
2022-09-29T14:35:59.491Z,100346.78
2022-09-29T14:38:25.906Z,100354.03
2022-09-29T14:41:05.717Z,100355.03
2022-09-29T14:44:07.339Z,100352.19
2022-09-29T14:47:03.170Z,100360.34
2022-09-29T14:49:58.424Z,100358.66
2022-09-29T14:52:42.890Z,100354.31
2022-09-29T14:55:31.050Z,100368.50
2022-09-29T14:58:12.400Z,100367.13
2022-09-29T15:01:00.615Z,100369.19
2022-09-29T15:03:35.316Z,100383.50
2022-09-29T15:06:06.764Z,100380.03
2022-09-29T15:08:35.518Z,100387.13
2022-09-29T15:11:03.872Z,100380.81
2022-09-29T15:13:31.609Z,100378.38
2022-09-29T15:16:15.078Z,100379.06
2022-09-29T15:19:06.014Z,100388.81
2022-09-29T15:21:42.242Z,100387.03
2022-09-29T15:24:12.908Z,100394.13
2022-09-29T15:26:39.334Z,100395.81
2022-09-29T15:29:07.811Z,100397.63
2022-09-29T15:31:34.806Z,100393.56
2022-09-29T15:34:04.192Z,100396.72
2022-09-29T15:36:37.162Z,100402.13
2022-09-29T15:39:07.604Z,100408.47
2022-09-29T15:41:35.126Z,100394.34
2022-09-29T15:44:27.955Z,100402.69
2022-09-29T15:46:57.796Z,100403.00
2022-09-29T15:49:28.590Z,100404.09
2022-09-29T15:52:04.314Z,100403.44
2022-09-29T15:54:38.845Z,100403.34
2022-09-29T15:57:24.956Z,100411.34
2022-09-29T15:59:54.163Z,100414.03
2022-09-29T16:02:30.364Z,100417.50
2022-09-29T16:05:02.176Z,100418.38
2022-09-29T16:07:35.232Z,100423.69
2022-09-29T16:10:14.669Z,100427.28
2022-09-29T16:12:48.736Z,100424.72
2022-09-29T16:15:48.206Z,100432.72
2022-09-29T16:18:31.795Z,100444.22
2022-09-29T16:21:04.539Z,100440.78
2022-09-29T16:23:51.518Z,100440.81
2022-09-29T16:26:37.190Z,100448.81
2022-09-29T16:29:09.329Z,100451.56
2022-09-29T16:31:47.176Z,100459.66
2022-09-29T16:34:24.927Z,100441.47
2022-09-29T16:37:02.578Z,100462.66
2022-09-29T16:39:43.222Z,100461.06
2022-09-29T16:42:26.912Z,100465.66
2022-09-29T16:44:55.746Z,100462.41
2022-09-29T16:47:28.257Z,100466.16
2022-09-29T16:50:09.274Z,100472.63
2022-09-29T16:52:50.673Z,100466.69
2022-09-29T16:55:17.235Z,100471.38
2022-09-29T16:58:01.804Z,100466.31
2022-09-29T17:00:29.035Z,100476.22
2022-09-29T17:02:56.806Z,100477.19
2022-09-29T17:05:27.361Z,100474.69
2022-09-29T17:08:01.308Z,100475.91
2022-09-29T17:10:27.729Z,100480.34
2022-09-29T17:12:55.207Z,100486.00
2022-09-29T17:15:22.504Z,100489.69
2022-09-29T17:17:50.743Z,100493.47
2022-09-29T17:20:20.178Z,100494.59
2022-09-29T17:22:47.007Z,100502.81
2022-09-29T17:25:13.839Z,100501.38
2022-09-29T17:28:02.323Z,100512.16
2022-09-29T17:30:28.723Z,100512.38
2022-09-29T17:32:58.943Z,100514.34
2022-09-29T17:35:29.025Z,100522.50
2022-09-29T17:38:04.005Z,100520.00
2022-09-29T17:40:34.902Z,100524.66
2022-09-29T17:43:01.745Z,100516.06
2022-09-29T17:45:35.291Z,100517.97
2022-09-29T17:48:02.696Z,100521.72
2022-09-29T17:50:41.490Z,100532.47
2022-09-29T17:53:17.513Z,100526.44
2022-09-29T17:55:48.966Z,100537.16
2022-09-29T17:58:16.683Z,100532.06
2022-09-29T18:01:03.247Z,100531.28
2022-09-29T18:03:29.586Z,100540.25
2022-09-29T18:05:56.749Z,100539.53
2022-09-29T18:08:25.842Z,100545.84
2022-09-29T18:11:00.393Z,100536.31
2022-09-29T18:13:29.311Z,100545.22
2022-09-29T18:15:56.461Z,100547.97
2022-09-29T18:18:23.295Z,100547.16
2022-09-29T18:20:50.540Z,100555.94
2022-09-29T18:23:23.862Z,100554.25
2022-09-29T18:25:51.482Z,100560.53
2022-09-29T18:28:18.449Z,100571.25
2022-09-29T18:30:47.638Z,100566.00
2022-09-29T18:33:41.233Z,100570.53
2022-09-29T18:36:10.350Z,100573.25
2022-09-29T18:38:36.957Z,100570.69
2022-09-29T18:41:03.766Z,100571.66
2022-09-29T18:43:30.595Z,100573.41
2022-09-29T18:45:58.867Z,100580.50
2022-09-29T18:48:25.273Z,100584.09
2022-09-29T18:50:53.317Z,100591.16
2022-09-29T18:53:21.472Z,100592.13
2022-09-29T18:55:52.306Z,100589.53
2022-09-29T18:58:26.220Z,100594.84
2022-09-29T19:00:55.606Z,100599.31
2022-09-29T19:03:28.006Z,100603.78
2022-09-29T19:05:58.580Z,100605.56
2022-09-29T19:08:25.200Z,100602.06
2022-09-29T19:10:58.495Z,100604.75
2022-09-29T19:13:29.144Z,100600.41
2022-09-29T19:15:57.442Z,100611.94
2022-09-29T19:18:25.219Z,100613.69
2022-09-29T19:20:56.275Z,100607.56
2022-09-29T19:23:24.060Z,100608.47
2022-09-29T19:25:51.851Z,100609.38
2022-09-29T19:28:20.199Z,100612.94
2022-09-29T19:30:48.687Z,100618.25
2022-09-29T19:33:19.233Z,100614.75
2022-09-29T19:35:48.492Z,100641.16
2022-09-29T19:38:15.749Z,100640.31
2022-09-29T19:40:45.819Z,100646.50
2022-09-29T19:43:14.453Z,100653.56
2022-09-29T19:45:42.398Z,100653.56
2022-09-29T19:48:16.661Z,100655.38
2022-09-29T19:51:02.344Z,100655.38
2022-09-29T19:53:29.225Z,100652.72
2022-09-29T19:55:55.882Z,100654.50
2022-09-29T19:58:23.648Z,100655.38
2022-09-29T20:00:54.757Z,100651.00
2022-09-29T20:03:21.364Z,100654.56
2022-09-29T20:05:50.542Z,100654.59
2022-09-29T20:08:16.896Z,100663.41
2022-09-29T20:10:44.686Z,100659.91
2022-09-29T20:13:11.687Z,100672.22
2022-09-29T20:15:41.748Z,100683.66
2022-09-29T20:18:08.555Z,100678.41
2022-09-29T20:20:37.541Z,100684.56
2022-09-29T20:23:04.044Z,100683.69
2022-09-29T20:25:30.367Z,100688.09
2022-09-29T20:27:58.914Z,100684.59
2022-09-29T20:30:26.352Z,100688.13
2022-09-29T20:32:52.734Z,100689.88
2022-09-29T20:35:19.359Z,100695.16
2022-09-29T20:37:49.622Z,100700.41
2022-09-29T20:40:19.257Z,100683.75
2022-09-29T20:42:48.781Z,100704.81
2022-09-29T20:45:16.201Z,100699.56
2022-09-29T20:47:42.598Z,100703.06
2022-09-29T20:50:10.132Z,100709.22
2022-09-29T20:52:37.159Z,100711.84
2022-09-29T20:55:03.883Z,100716.22
2022-09-29T20:57:31.882Z,100726.75
2022-09-29T20:59:58.295Z,100726.78
2022-09-29T21:02:25.267Z,100732.03
2022-09-29T21:04:51.708Z,100732.00
2022-09-29T21:07:36.114Z,100735.53
2022-09-29T21:10:03.960Z,100740.81
2022-09-29T21:12:32.011Z,100732.91
2022-09-29T21:14:59.683Z,100732.88
2022-09-29T21:17:26.523Z,100740.75
2022-09-29T21:19:52.844Z,100750.41
2022-09-29T21:22:19.242Z,100743.41
2022-09-29T21:24:45.568Z,100743.34
2022-09-29T21:27:11.939Z,100742.47
2022-09-29T21:29:38.339Z,100746.84
2022-09-29T21:32:04.831Z,100747.72
2022-09-29T21:34:31.340Z,100759.09
2022-09-29T21:36:57.832Z,100760.00
2022-09-29T21:39:24.168Z,100758.25
2022-09-29T21:41:50.582Z,100753.84
2022-09-29T21:44:23.911Z,100758.22
2022-09-29T21:46:50.609Z,100759.09
2022-09-29T21:49:19.132Z,100757.34
2022-09-29T21:51:48.264Z,100758.22
2022-09-29T21:54:18.090Z,100759.06
2022-09-29T21:56:46.957Z,100759.94
2022-09-29T21:59:18.851Z,100758.19
2022-09-29T22:01:48.587Z,100766.91
2022-09-29T22:04:15.875Z,100754.59
2022-09-29T22:06:45.242Z,100754.59
2022-09-29T22:09:19.005Z,100758.97
2022-09-29T22:11:47.357Z,100758.06
2022-09-29T22:14:14.536Z,100763.31
2022-09-29T22:16:41.019Z,100765.06
2022-09-29T22:19:24.632Z,100759.78
2022-09-29T22:21:53.613Z,100765.91
2022-09-29T22:24:20.368Z,100766.81
2022-09-29T22:26:46.791Z,100765.94
2022-09-29T22:29:13.737Z,100760.69
2022-09-29T22:31:40.935Z,100765.91
2022-09-29T22:34:10.999Z,100761.56
2022-09-29T22:36:37.359Z,100764.19
2022-09-29T22:39:06.218Z,100769.44
2022-09-29T22:41:33.162Z,100773.78
2022-09-29T22:44:00.174Z,100770.25
2022-09-29T22:46:29.157Z,100771.13
2022-09-29T22:48:55.980Z,100781.66
2022-09-29T22:51:25.227Z,100780.78
2022-09-29T22:53:52.011Z,100777.19
2022-09-29T22:56:28.121Z,100781.53
2022-09-29T22:58:58.310Z,100773.66
2022-09-29T23:01:26.259Z,100775.41
2022-09-29T23:03:53.976Z,100788.50
2022-09-29T23:06:20.454Z,100790.25
2022-09-29T23:08:46.960Z,100791.97
2022-09-29T23:11:19.333Z,100796.31
2022-09-29T23:13:46.877Z,100796.31
2022-09-29T23:16:15.267Z,100791.03
2022-09-29T23:18:43.889Z,100787.53
2022-09-29T23:21:12.904Z,100792.78
2022-09-29T23:23:39.345Z,100787.50
2022-09-29T23:26:06.224Z,100782.22
2022-09-29T23:28:32.565Z,100785.72
2022-09-29T23:31:03.666Z,100783.09
2022-09-29T23:33:30.211Z,100791.84
2022-09-29T23:36:11.189Z,100792.72
2022-09-29T23:39:01.037Z,100792.75
2022-09-29T23:41:29.834Z,100778.69
2022-09-29T23:43:58.593Z,100775.09
2022-09-29T23:46:27.084Z,100789.97
2022-09-29T23:48:53.429Z,100774.22
2022-09-29T23:51:19.837Z,100788.22
2022-09-29T23:53:46.210Z,100787.34
2022-09-29T23:56:12.863Z,100791.72
2022-09-29T23:58:39.699Z,100790.81
